Login

bastardodentro57
2 activity; - Last training unit 06/04/2015
06/04/2015 Show to everybody BASSIANO-NORMA-BASSIANO 43.84 1347 02:16:40 19.25 Km\h
04/04/2015 Show to everybody semprevisa 32.47 955 01:55:41 16.84 Km\h
02/04/2015 Show to everybody Mezza botta 21.34 550 01:17:27 16.53 Km\h
30/03/2015 Show to everybody semprevisa 32.52 941 02:10:12 14.99 Km\h
28/03/2015 Show to everybody Bassiano (prosciuttificio) Sermoneta-Bassiano grottino-Camporosello (Semprevisa) 60.61 2064 04:27:49 13.58 Km\h
24/03/2015 Show to everybody semprevisa 32.53 943 02:07:50 15.27 Km\h
22/03/2015 Show to everybody semprevisa 32.96 1001 02:27:30 13.41 Km\h
21/03/2015 Show to everybody Camporosello-Carpinetana-Camporosello 60.12 1965 04:17:10 14.03 Km\h
15/03/2015 Show to everybody Bassiano-Latina scalo-Cori-Norma-Bassiano 67.14 1141 03:51:38 17.39 Km\h
12/03/2015 Show to everybody semprevisa 32.35 973 01:59:08 16.29 Km\h
09/03/2015 Show to everybody Semprevisa 32.5 951 02:21:02 13.83 Km\h
08/03/2015 Show to everybody Sermoneta-Norma-Bassiano-Camporosello 76.53 2070 04:44:26 16.14 Km\h
07/03/2015 Show to everybody semprevisa 38.52 1149 02:34:33 14.95 Km\h
01/03/2015 Show to everybody Allenamento Via Le Pastine, Pontenuovo 43.26 837 02:29:20 17.38 Km\h
28/02/2015 Show to everybody Semprevisa 55.29 1531 03:48:44 14.5 Km\h
27/02/2015 Show to everybody semprevisa 15.28 387 00:51:47 17.71 Km\h
27/02/2015 Show to everybody semprevisa 33.88 1046 02:18:58 14.63 Km\h
22/02/2015 Show to everybody Semprevisa 37.75 1083 02:35:14 14.59 Km\h
21/02/2015 Show to everybody Semprevisa 37.74 1105 02:27:10 15.39 Km\h
15/02/2015 Show to everybody Semprevisa 33.94 1066 02:24:30 14.09 Km\h
14/02/2015 Show to everybody Semprevisa 32.45 964 02:20:47 13.83 Km\h
08/02/2015 Show to everybody Semprevisa 32.43 983 02:22:10 13.69 Km\h
07/02/2015 Show to everybody Semprevisa 15.3 846 01:40:08 9.17 Km\h
01/02/2015 Show to everybody Semprevisa 33.23 1031 02:21:19 14.11 Km\h
Training units 0
Kilometers 0 Km
Vertical gain 0 mt
Hours of riding 00:00:00
Average speed 0 Km/h
average HR 117
Points 96
Live Tracking »


 
If you stop following this users you will not be able to compare your trainings with his

Now you follow this users and you can compare your trainings


MTB-Forum.it | 2012-2019 Training Camp v.1.6 rev 05